Santa Pola, Spain
Current Conditions -  °F | °C
As of 10:30 PM on Thursday 18 Dec 2014 (Local Time) from LEAL Reporting Station
Clear Clear  
Wind Chill: 52°   Ceiling: Unl
Heat Index: 52°   Visibility: 6mi
Dew Point: 48°   Wind: 3mph
Humidity: 88%   Direction: 290°WNW
Pressure: 30.36"   Gusts: NA
Location:  38.19°N, 0.56°W
Report Text: LEAL 182130Z 29003KT 260V320 CAVOK 11/09 Q1028 NOSIG
Loading
Personal Weather Stations






























Interactive Weather Map New forecast layout! Learn more

10-Day Weather Forecast

Advertisements
Track Severe Weather on mobile